Time;durP1;ratioP1;P1;durP2;ratioP2;P2;SDS_P1;SDS_P2;PMS_P1;PMS_P2;Temp;Humidity;BMP_temperature;BMP_pressure;BME280_temperature;BME280_humidity;BME280_pressure;Samples;Min_cycle;Max_cycle;Signal;HPM_P1;HPM_P2
2021/12/14 00:02:03;;;;;;;;;;;7.80;99.90;;;;;;5064141;28;19924;-65
2021/12/14 00:04:32;;;;;;;;;;;7.80;99.90;;;;;;5067467;28;19920;-65
2021/12/14 00:07:02;;;;;;;;;;;7.80;99.90;;;;;;5070850;28;19921;-67
2021/12/14 00:09:34;;;;;;;;;;;7.80;99.90;;;;;;5070590;28;19963;-67
2021/12/14 00:17:17;;;;;;;;;;;7.80;99.90;;;;;;5064091;28;19924;-68
2021/12/14 00:19:46;;;;;;;;;;;7.90;99.90;;;;;;5073725;28;19920;-68
2021/12/14 00:22:21;;;;;;;;;;;7.80;99.90;;;;;;5052540;28;19924;-69
2021/12/14 00:24:48;;;;;;;;;;;7.90;99.90;;;;;;5067074;28;20151;-69
2021/12/14 00:27:18;;;;;;;;;;;7.90;99.90;;;;;;5074214;28;19924;-65
2021/12/14 00:29:47;;;;;;;;;;;7.90;99.90;;;;;;5071602;28;19927;-65
2021/12/14 00:32:19;;;;;;;;;;;7.90;99.90;;;;;;5071317;28;19947;-64
2021/12/14 00:34:47;;;;;;;;;;;7.90;99.90;;;;;;5075083;28;19931;-64
2021/12/14 00:37:21;;;;;;;;;;;7.90;99.90;;;;;;5070362;28;19920;-64
2021/12/14 00:39:50;;;;;;;;;;;7.90;99.90;;;;;;5059293;28;20387;-64
2021/12/14 00:42:17;;;;;;;;;;;7.90;99.90;;;;;;5049599;28;19932;-65
2021/12/14 00:44:46;;;;;;;;;;;7.80;99.90;;;;;;5065721;28;19987;-64
2021/12/14 00:47:13;;;;;;;;;;;7.90;99.90;;;;;;5066175;28;20175;-69
2021/12/14 00:49:41;;;;;;;;;;;7.90;99.90;;;;;;5068524;28;19925;-65
2021/12/14 00:52:09;;;;;;;;;;;7.90;99.90;;;;;;5069178;28;19924;-67
2021/12/14 00:54:40;;;;;;;;;;;7.90;99.90;;;;;;5071792;28;19920;-66
2021/12/14 00:57:08;;;;;;;;;;;7.90;99.90;;;;;;5051171;28;20410;-65
2021/12/14 00:59:36;;;;;;;;;;;7.90;99.90;;;;;;5068080;28;20398;-68
2021/12/14 01:02:04;;;;;;;;;;;7.90;99.90;;;;;;5075625;28;19920;-68
2021/12/14 01:04:33;;;;;;;;;;;7.90;99.90;;;;;;5048227;28;19924;-69
2021/12/14 01:07:02;;;;;;;;;;;7.90;99.90;;;;;;5085015;28;20288;-65
2021/12/14 01:09:33;;;;;;;;;;;7.90;99.90;;;;;;5071237;28;20386;-69
2021/12/14 01:12:07;;;;;;;;;;;7.90;99.90;;;;;;5080379;28;20390;-65
2021/12/14 01:14:50;;;;;;;;;;;7.90;99.90;;;;;;5070943;28;19920;-69
2021/12/14 01:17:41;;;;;;;;;;;7.90;99.90;;;;;;5053434;28;19958;-68
2021/12/14 01:20:11;;;;;;;;;;;7.90;99.90;;;;;;5070997;28;20159;-67
2021/12/14 01:22:45;;;;;;;;;;;7.90;99.90;;;;;;5076150;28;19931;-69
2021/12/14 01:25:19;;;;;;;;;;;7.90;99.90;;;;;;5079480;28;19935;-71
2021/12/14 01:27:47;;;;;;;;;;;8.00;99.90;;;;;;5083735;28;19925;-69
2021/12/14 01:30:17;;;;;;;;;;;7.90;99.90;;;;;;5086794;28;19920;-68
2021/12/14 01:32:47;;;;;;;;;;;7.90;99.90;;;;;;5068766;28;19921;-66
2021/12/14 01:35:16;;;;;;;;;;;8.00;99.90;;;;;;5078832;28;20390;-71
2021/12/14 01:37:58;;;;;;;;;;;8.00;99.90;;;;;;5082695;28;19920;-70
2021/12/14 01:43:40;;;;;;;;;;;7.90;99.90;;;;;;5033865;28;19943;-69
2021/12/14 01:46:25;;;;;;;;;;;7.90;99.90;;;;;;5053139;28;19927;-68
2021/12/14 01:49:04;;;;;;;;;;;7.90;99.90;;;;;;5069400;28;19946;-69
2021/12/14 01:51:57;;;;;;;;;;;7.90;99.90;;;;;;5057978;28;19921;-69
2021/12/14 01:54:32;;;;;;;;;;;7.90;99.90;;;;;;5069731;28;19920;-71
2021/12/14 01:57:05;;;;;;;;;;;7.90;99.90;;;;;;5048713;28;19927;-71
2021/12/14 01:59:36;;;;;;;;;;;7.90;99.90;;;;;;5086192;28;19925;-71
2021/12/14 02:02:23;;;;;;;;;;;7.90;99.90;;;;;;5098047;28;19942;-69
2021/12/14 02:04:52;;;;;;;;;;;7.90;99.90;;;;;;5068038;28;19920;-71
2021/12/14 02:07:20;;;;;;;;;;;7.90;99.90;;;;;;5070512;28;19935;-67
2021/12/14 02:09:53;;;;;;;;;;;7.90;99.90;;;;;;5070805;28;19927;-64
2021/12/14 02:12:23;;;;;;;;;;;7.90;99.90;;;;;;5068037;28;19943;-66
2021/12/14 02:14:51;;;;;;;;;;;7.90;99.90;;;;;;5066776;28;19920;-65
2021/12/14 02:17:20;;;;;;;;;;;7.90;99.90;;;;;;5068211;28;19920;-67
2021/12/14 02:19:48;;;;;;;;;;;7.90;99.90;;;;;;5079475;28;20014;-64
2021/12/14 02:22:16;;;;;;;;;;;7.90;99.90;;;;;;5068259;28;20291;-65
2021/12/14 02:24:45;;;;;;;;;;;7.90;99.90;;;;;;5066738;28;19921;-66
2021/12/14 02:27:12;;;;;;;;;;;7.90;99.90;;;;;;5077741;28;19923;-66
2021/12/14 02:29:42;;;;;;;;;;;7.90;99.90;;;;;;5067637;28;19921;-66
2021/12/14 02:32:14;;;;;;;;;;;7.90;99.90;;;;;;5053165;28;19921;-65
2021/12/14 02:34:47;;;;;;;;;;;7.90;99.90;;;;;;5068818;28;19920;-64
2021/12/14 02:37:16;;;;;;;;;;;7.80;99.90;;;;;;5092229;28;19927;-64
2021/12/14 02:39:48;;;;;;;;;;;7.80;99.90;;;;;;5090880;28;20281;-65
2021/12/14 02:42:22;;;;;;;;;;;7.80;99.90;;;;;;5073999;28;19920;-67
2021/12/14 02:44:52;;;;;;;;;;;7.80;99.90;;;;;;5073916;28;19920;-64
2021/12/14 02:47:20;;;;;;;;;;;7.80;99.90;;;;;;5072483;28;19921;-68
2021/12/14 02:49:49;;;;;;;;;;;7.80;99.90;;;;;;5089786;28;19920;-65
2021/12/14 02:52:30;;;;;;;;;;;7.80;99.90;;;;;;5066115;28;19927;-64
2021/12/14 02:55:10;;;;;;;;;;;7.70;99.90;;;;;;5098902;28;19927;-64
2021/12/14 02:57:39;;;;;;;;;;;7.70;99.90;;;;;;5086889;28;19921;-69
2021/12/14 03:00:29;;;;;;;;;;;7.70;99.90;;;;;;5087043;28;20291;-68
2021/12/14 03:03:00;;;;;;;;;;;7.70;99.90;;;;;;5077159;28;20488;-67
2021/12/14 03:05:31;;;;;;;;;;;7.70;99.90;;;;;;5094071;28;19927;-66
2021/12/14 03:08:05;;;;;;;;;;;7.60;99.90;;;;;;5073502;28;19939;-65
2021/12/14 03:10:51;;;;;;;;;;;7.70;99.90;;;;;;5085783;28;19920;-63
2021/12/14 03:13:19;;;;;;;;;;;7.70;99.90;;;;;;5057379;28;19921;-63
2021/12/14 03:15:51;;;;;;;;;;;7.60;99.90;;;;;;5062813;28;20347;-64
2021/12/14 03:18:32;;;;;;;;;;;7.60;99.90;;;;;;5055818;28;19935;-63
2021/12/14 03:21:00;;;;;;;;;;;7.70;99.90;;;;;;5071245;28;19919;-65
2021/12/14 03:23:30;;;;;;;;;;;7.60;99.90;;;;;;5077828;28;19921;-65
2021/12/14 03:25:59;;;;;;;;;;;7.60;99.90;;;;;;5060402;28;19943;-64
2021/12/14 03:28:28;;;;;;;;;;;7.60;99.90;;;;;;5071130;28;19929;-64
2021/12/14 03:30:58;;;;;;;;;;;7.60;99.90;;;;;;5072326;28;19927;-62
2021/12/14 03:33:33;;;;;;;;;;;7.50;99.90;;;;;;5058189;28;19921;-63
2021/12/14 03:36:12;;;;;;;;;;;7.50;99.90;;;;;;5073640;28;20300;-63
2021/12/14 03:38:46;;;;;;;;;;;7.60;99.90;;;;;;5056169;28;20464;-64
2021/12/14 03:41:20;;;;;;;;;;;7.50;99.90;;;;;;5073113;28;19925;-64
2021/12/14 03:43:59;;;;;;;;;;;7.50;99.90;;;;;;5093383;28;19928;-62
2021/12/14 03:46:35;;;;;;;;;;;7.50;99.90;;;;;;5073195;28;19991;-63
2021/12/14 03:49:05;;;;;;;;;;;7.50;99.90;;;;;;5068184;28;20368;-63
2021/12/14 03:51:33;;;;;;;;;;;7.50;99.90;;;;;;5084913;28;19920;-63
2021/12/14 03:54:03;;;;;;;;;;;7.50;99.90;;;;;;5071957;28;20291;-64
2021/12/14 03:56:33;;;;;;;;;;;7.50;99.90;;;;;;5072924;28;20288;-62
2021/12/14 03:59:01;;;;;;;;;;;7.50;99.90;;;;;;5069820;28;19943;-64
2021/12/14 04:01:34;;;;;;;;;;;7.50;99.90;;;;;;5070376;28;19936;-64
2021/12/14 04:04:25;;;;;;;;;;;7.40;99.90;;;;;;5072590;28;19920;-64
2021/12/14 04:06:54;;;;;;;;;;;7.50;99.90;;;;;;5055718;28;19920;-64
2021/12/14 04:09:23;;;;;;;;;;;7.50;99.90;;;;;;5063149;28;20292;-62
2021/12/14 04:11:51;;;;;;;;;;;7.50;99.90;;;;;;5072583;28;19927;-63
2021/12/14 04:14:20;;;;;;;;;;;7.50;99.90;;;;;;5098785;28;19921;-63
2021/12/14 04:16:49;;;;;;;;;;;7.40;99.90;;;;;;5070467;28;19920;-63
2021/12/14 04:19:23;;;;;;;;;;;7.50;99.90;;;;;;5053412;28;19928;-63
2021/12/14 04:21:58;;;;;;;;;;;7.50;99.90;;;;;;5104179;28;19921;-63
2021/12/14 04:24:28;;;;;;;;;;;7.40;99.90;;;;;;5058646;28;19928;-64
2021/12/14 04:26:57;;;;;;;;;;;7.40;99.90;;;;;;5068950;28;19921;-63
2021/12/14 04:29:25;;;;;;;;;;;7.40;99.90;;;;;;5092860;28;19921;-64
2021/12/14 04:31:52;;;;;;;;;;;7.40;99.90;;;;;;5094049;28;19927;-63
2021/12/14 04:34:22;;;;;;;;;;;7.30;99.90;;;;;;5059576;28;19920;-64
2021/12/14 04:36:52;;;;;;;;;;;7.30;99.90;;;;;;5070155;28;19921;-64
2021/12/14 04:53:28;;;;;;;;;;;7.20;99.90;;;;;;5087758;28;19990;-65
2021/12/14 04:55:56;;;;;;;;;;;7.10;99.90;;;;;;5074101;28;19920;-67
2021/12/14 04:58:27;;;;;;;;;;;7.10;99.90;;;;;;5056194;28;19921;-67
2021/12/14 05:00:55;;;;;;;;;;;7.10;99.90;;;;;;5075624;28;19932;-64
2021/12/14 05:03:29;;;;;;;;;;;7.10;99.90;;;;;;5075798;28;19921;-67
2021/12/14 05:06:10;;;;;;;;;;;7.00;99.90;;;;;;5051434;28;19920;-68
2021/12/14 05:11:09;;;;;;;;;;;7.00;99.90;;;;;;5084039;28;19928;-68
2021/12/14 05:13:40;;;;;;;;;;;7.00;99.90;;;;;;5052735;28;19928;-66
2021/12/14 05:16:16;;;;;;;;;;;6.90;99.90;;;;;;5052286;28;19921;-69
2021/12/14 05:18:46;;;;;;;;;;;6.90;99.90;;;;;;5079667;28;19921;-64
2021/12/14 05:21:25;;;;;;;;;;;7.00;99.90;;;;;;5056066;28;19924;-66
2021/12/14 05:23:53;;;;;;;;;;;7.00;99.90;;;;;;5080037;28;19921;-66
2021/12/14 05:26:21;;;;;;;;;;;7.00;99.90;;;;;;5067649;28;19920;-68
2021/12/14 05:28:49;;;;;;;;;;;7.00;99.90;;;;;;5071708;28;19927;-67
2021/12/14 05:31:21;;;;;;;;;;;7.00;99.90;;;;;;5062565;28;19927;-65
2021/12/14 05:33:50;;;;;;;;;;;7.00;99.90;;;;;;5068901;28;19920;-65
2021/12/14 05:36:27;;;;;;;;;;;7.00;99.90;;;;;;5062375;28;19920;-67
2021/12/14 05:44:51;;;;;;;;;;;7.00;99.90;;;;;;5074023;28;20381;-67
2021/12/14 05:47:20;;;;;;;;;;;7.00;99.90;;;;;;5086070;28;19931;-68
2021/12/14 05:50:03;;;;;;;;;;;7.00;99.90;;;;;;5050886;28;19931;-66
2021/12/14 05:52:32;;;;;;;;;;;7.00;99.90;;;;;;5083833;28;19924;-64
2021/12/14 05:55:10;;;;;;;;;;;7.00;99.90;;;;;;5086892;28;19920;-63
2021/12/14 05:57:38;;;;;;;;;;;7.00;99.90;;;;;;5081798;28;19920;-64
2021/12/14 06:00:10;;;;;;;;;;;7.00;99.90;;;;;;5066987;28;19924;-62
2021/12/14 06:02:44;;;;;;;;;;;7.00;99.90;;;;;;5046492;28;19928;-64
2021/12/14 06:05:15;;;;;;;;;;;7.00;99.90;;;;;;5066007;28;19931;-66
2021/12/14 06:07:44;;;;;;;;;;;7.00;99.90;;;;;;5062715;28;19939;-66
2021/12/14 06:10:12;;;;;;;;;;;7.00;99.90;;;;;;5082644;28;20387;-65
2021/12/14 06:12:42;;;;;;;;;;;7.00;99.90;;;;;;5081618;28;20105;-65
2021/12/14 06:15:16;;;;;;;;;;;7.00;99.90;;;;;;5073932;28;19921;-66
2021/12/14 06:17:45;;;;;;;;;;;7.00;99.90;;;;;;5067639;28;19921;-66
2021/12/14 06:20:31;;;;;;;;;;;7.00;99.90;;;;;;5068923;28;20269;-66
2021/12/14 06:23:01;;;;;;;;;;;7.00;99.90;;;;;;5065865;28;19921;-65
2021/12/14 06:25:49;;;;;;;;;;;7.00;99.90;;;;;;5052255;28;20390;-66
2021/12/14 06:28:24;;;;;;;;;;;7.10;99.90;;;;;;5063306;28;19924;-65
2021/12/14 06:30:54;;;;;;;;;;;7.10;99.90;;;;;;5069775;28;19924;-64
2021/12/14 06:33:21;;;;;;;;;;;7.10;99.90;;;;;;5076240;28;20295;-64
2021/12/14 06:35:50;;;;;;;;;;;7.10;99.90;;;;;;5047651;28;19988;-64
2021/12/14 06:38:28;;;;;;;;;;;7.10;99.90;;;;;;5055039;28;19925;-64
2021/12/14 06:40:56;;;;;;;;;;;7.20;99.90;;;;;;5048204;28;19928;-64
2021/12/14 06:43:26;;;;;;;;;;;7.20;99.90;;;;;;5064753;28;19931;-66
2021/12/14 06:45:56;;;;;;;;;;;7.20;99.90;;;;;;5081844;28;19927;-65
2021/12/14 06:48:33;;;;;;;;;;;7.20;99.90;;;;;;5071520;28;19920;-63
2021/12/14 06:51:00;;;;;;;;;;;7.20;99.90;;;;;;5072292;28;20383;-64
2021/12/14 06:53:45;;;;;;;;;;;7.20;99.90;;;;;;5065567;28;20307;-65
2021/12/14 06:56:21;;;;;;;;;;;7.30;99.90;;;;;;5071764;28;19924;-64
2021/12/14 06:59:05;;;;;;;;;;;7.30;99.90;;;;;;5071656;28;19924;-63
2021/12/14 07:02:00;;;;;;;;;;;7.30;99.90;;;;;;5068008;28;19927;-64
2021/12/14 07:04:31;;;;;;;;;;;7.30;99.90;;;;;;5047175;28;19928;-64
2021/12/14 07:07:01;;;;;;;;;;;7.30;99.90;;;;;;5049106;28;19928;-64
2021/12/14 07:09:33;;;;;;;;;;;7.30;99.90;;;;;;5058536;28;19928;-64
2021/12/14 07:12:21;;;;;;;;;;;7.30;99.90;;;;;;5068304;28;19920;-64
2021/12/14 07:14:49;;;;;;;;;;;7.30;99.90;;;;;;5070257;28;19921;-71
2021/12/14 07:17:18;;;;;;;;;;;7.30;99.90;;;;;;5071634;28;19924;-72
2021/12/14 07:19:53;;;;;;;;;;;7.40;99.90;;;;;;5062493;28;20038;-72
2021/12/14 07:22:30;;;;;;;;;;;7.40;99.90;;;;;;5052862;28;20400;-72
2021/12/14 07:25:01;;;;;;;;;;;7.40;99.90;;;;;;5051468;28;19928;-71
2021/12/14 07:27:29;;;;;;;;;;;7.40;99.90;;;;;;5053603;28;19924;-68
2021/12/14 07:30:12;;;;;;;;;;;7.50;99.90;;;;;;5053443;28;20394;-73
2021/12/14 07:32:40;;;;;;;;;;;7.50;99.90;;;;;;5071100;28;20426;-72
2021/12/14 07:35:16;;;;;;;;;;;7.50;99.90;;;;;;5070793;28;20395;-69
2021/12/14 07:37:44;;;;;;;;;;;7.50;99.90;;;;;;5054306;28;19920;-74
2021/12/14 07:40:12;;;;;;;;;;;7.50;99.90;;;;;;5066388;28;20367;-64
2021/12/14 07:42:41;;;;;;;;;;;7.60;99.90;;;;;;5070328;28;20304;-63
2021/12/14 07:45:09;;;;;;;;;;;7.50;99.90;;;;;;5053393;28;20261;-63
2021/12/14 07:47:48;;;;;;;;;;;7.60;99.90;;;;;;5067691;28;19921;-63
2021/12/14 07:50:16;;;;;;;;;;;7.50;99.90;;;;;;5049726;28;19935;-63
2021/12/14 07:52:43;;;;;;;;;;;7.60;99.90;;;;;;5056117;28;19944;-63
2021/12/14 07:55:14;;;;;;;;;;;7.60;99.90;;;;;;5067391;28;19943;-66
2021/12/14 07:57:44;;;;;;;;;;;7.60;99.90;;;;;;5069992;28;20495;-64
2021/12/14 08:00:15;;;;;;;;;;;7.60;99.90;;;;;;5070555;28;20296;-65
2021/12/14 08:02:45;;;;;;;;;;;7.60;99.90;;;;;;5066761;28;19920;-64
2021/12/14 08:05:23;;;;;;;;;;;7.60;99.90;;;;;;5066971;28;20101;-64
2021/12/14 08:07:53;;;;;;;;;;;7.60;99.90;;;;;;5057757;28;19921;-62
2021/12/14 08:10:27;;;;;;;;;;;7.60;99.90;;;;;;5070409;28;19928;-63
2021/12/14 08:13:04;;;;;;;;;;;7.60;99.90;;;;;;5069005;28;19927;-62
2021/12/14 08:15:53;;;;;;;;;;;7.60;99.90;;;;;;5069058;28;19927;-67
2021/12/14 08:18:23;;;;;;;;;;;7.60;99.90;;;;;;5069950;28;20421;-64
2021/12/14 08:20:58;;;;;;;;;;;7.60;99.90;;;;;;5069614;28;19927;-64
2021/12/14 08:23:25;;;;;;;;;;;7.60;99.90;;;;;;5062776;28;19927;-64
2021/12/14 08:25:58;;;;;;;;;;;7.50;99.90;;;;;;5069111;28;19927;-65
2021/12/14 08:28:25;;;;;;;;;;;7.50;99.90;;;;;;5068656;28;19944;-63
2021/12/14 08:31:09;;;;;;;;;;;7.40;99.90;;;;;;5070089;28;19931;-63
2021/12/14 08:33:36;;;;;;;;;;;7.30;99.90;;;;;;5069741;28;19924;-62
2021/12/14 08:36:05;;;;;;;;;;;7.30;99.90;;;;;;5068141;28;20306;-63
2021/12/14 08:38:35;;;;;;;;;;;7.20;99.90;;;;;;5062403;28;20269;-63
2021/12/14 08:41:16;;;;;;;;;;;7.20;99.90;;;;;;5069790;28;19927;-64
2021/12/14 08:43:50;;;;;;;;;;;7.20;99.90;;;;;;5069647;28;19931;-63
2021/12/14 08:46:22;;;;;;;;;;;7.20;99.90;;;;;;5068597;28;19928;-63
2021/12/14 08:48:52;;;;;;;;;;;7.20;99.90;;;;;;5068126;28;19924;-66
2021/12/14 08:51:23;;;;;;;;;;;7.10;99.90;;;;;;5065696;28;19932;-63
2021/12/14 08:53:51;;;;;;;;;;;7.10;99.90;;;;;;5064361;28;19920;-63
2021/12/14 08:56:19;;;;;;;;;;;7.00;99.90;;;;;;5069502;28;19928;-62
2021/12/14 08:58:47;;;;;;;;;;;7.10;99.90;;;;;;5068809;28;19931;-63
2021/12/14 09:01:19;;;;;;;;;;;7.10;99.90;;;;;;5068050;28;19927;-62
2021/12/14 09:03:51;;;;;;;;;;;7.10;99.90;;;;;;5069090;28;19928;-63
2021/12/14 09:06:19;;;;;;;;;;;7.20;99.90;;;;;;5067912;28;20376;-63
2021/12/14 09:08:48;;;;;;;;;;;7.20;99.90;;;;;;5062569;28;19924;-64
2021/12/14 09:11:19;;;;;;;;;;;7.30;99.90;;;;;;5069188;28;19924;-72
2021/12/14 09:13:47;;;;;;;;;;;7.30;99.90;;;;;;5067542;28;19925;-68
2021/12/14 09:16:18;;;;;;;;;;;7.40;99.90;;;;;;5069346;28;19920;-71
2021/12/14 09:18:51;;;;;;;;;;;7.40;99.90;;;;;;5069346;28;19924;-73
2021/12/14 09:21:22;;;;;;;;;;;7.50;99.90;;;;;;5066987;28;20299;-71
2021/12/14 09:23:51;;;;;;;;;;;7.50;99.90;;;;;;5064204;28;19920;-69
2021/12/14 09:26:24;;;;;;;;;;;7.60;99.90;;;;;;5067485;28;19920;-71
2021/12/14 09:28:52;;;;;;;;;;;7.60;99.90;;;;;;5068495;28;19927;-75
2021/12/14 09:31:21;;;;;;;;;;;7.70;99.90;;;;;;5069137;28;19927;-76
2021/12/14 09:33:50;;;;;;;;;;;7.80;99.90;;;;;;5068821;28;19924;-74
2021/12/14 09:36:17;;;;;;;;;;;7.80;99.90;;;;;;5068869;28;19920;-72
2021/12/14 09:38:47;;;;;;;;;;;7.90;99.90;;;;;;5063280;28;19920;-75
2021/12/14 09:41:18;;;;;;;;;;;7.90;99.90;;;;;;5068596;28;19925;-76
2021/12/14 09:43:47;;;;;;;;;;;8.00;99.90;;;;;;5068678;28;19924;-77
2021/12/14 09:46:16;;;;;;;;;;;8.10;99.90;;;;;;5067297;28;19927;-76
2021/12/14 09:48:47;;;;;;;;;;;8.20;99.90;;;;;;5068387;28;19920;-76
2021/12/14 09:51:19;;;;;;;;;;;8.20;99.90;;;;;;5068473;28;19921;-74
2021/12/14 09:53:49;;;;;;;;;;;8.30;99.90;;;;;;5064832;28;19924;-72
2021/12/14 09:56:18;;;;;;;;;;;8.40;99.90;;;;;;5068605;28;19943;-77
2021/12/14 09:58:48;;;;;;;;;;;8.40;99.90;;;;;;5068538;28;20380;-73
2021/12/14 10:01:27;;;;;;;;;;;8.50;99.90;;;;;;5068693;28;19995;-78
2021/12/14 10:03:58;;;;;;;;;;;8.50;99.90;;;;;;5067145;28;20439;-74
2021/12/14 10:06:29;;;;;;;;;;;8.60;99.90;;;;;;5067959;28;20431;-64
2021/12/14 10:09:02;;;;;;;;;;;8.70;99.90;;;;;;5064430;28;19924;-72
2021/12/14 10:12:29;;;;;;;;;;;8.80;99.90;;;;;;5068669;28;20279;-68
2021/12/14 10:14:25;;;;;;;;;;;8.90;99.90;;;;;;5067611;28;19921;-74
2021/12/14 10:16:53;;;;;;;;;;;8.90;99.90;;;;;;5067402;28;19921;-62
2021/12/14 10:19:23;;;;;;;;;;;9.00;99.90;;;;;;5068179;28;20284;-73
2021/12/14 10:21:53;;;;;;;;;;;9.10;99.90;;;;;;5065739;28;19943;-67
2021/12/14 10:24:21;;;;;;;;;;;9.10;99.90;;;;;;5067887;28;19927;-64
2021/12/14 10:26:52;;;;;;;;;;;9.10;99.90;;;;;;5068097;28;19927;-64
2021/12/14 10:29:20;;;;;;;;;;;9.20;99.90;;;;;;5068072;28;19920;-65
2021/12/14 10:31:51;;;;;;;;;;;9.20;99.90;;;;;;5068279;28;20271;-64
2021/12/14 10:34:21;;;;;;;;;;;9.20;99.90;;;;;;5067838;28;19928;-61
2021/12/14 10:36:54;;;;;;;;;;;9.20;99.90;;;;;;5067890;28;19928;-66
2021/12/14 10:44:50;;;;;;;;;;;9.40;99.90;;;;;;5068394;28;19920;-61
2021/12/14 10:47:20;;;;;;;;;;;9.40;99.90;;;;;;5068011;28;19928;-74
2021/12/14 10:49:49;;;;;;;;;;;9.50;99.90;;;;;;5068117;28;19940;-61
2021/12/14 10:52:18;;;;;;;;;;;9.50;99.90;;;;;;5065888;28;19920;-61
2021/12/14 10:54:47;;;;;;;;;;;9.50;99.90;;;;;;5049796;28;19920;-66
2021/12/14 10:57:17;;;;;;;;;;;9.50;99.90;;;;;;5052884;28;19943;-64
2021/12/14 10:59:46;;;;;;;;;;;9.50;99.90;;;;;;5071989;28;19928;-65
2021/12/14 11:02:15;;;;;;;;;;;9.50;99.90;;;;;;5071975;28;19921;-66
2021/12/14 11:04:52;;;;;;;;;;;9.60;99.90;;;;;;5072943;28;19927;-66
2021/12/14 11:07:36;;;;;;;;;;;9.60;99.90;;;;;;5069645;28;20291;-61
2021/12/14 11:10:05;;;;;;;;;;;9.60;99.90;;;;;;5051858;28;19920;-61
2021/12/14 11:12:38;;;;;;;;;;;9.50;99.90;;;;;;5056389;28;20372;-63
2021/12/14 11:15:12;;;;;;;;;;;9.60;99.90;;;;;;5071751;28;19920;-64
2021/12/14 11:20:32;;;;;;;;;;;9.70;99.90;;;;;;5071326;28;19920;-60
2021/12/14 11:23:09;;;;;;;;;;;9.80;99.90;;;;;;5064844;28;20295;-62
2021/12/14 11:25:46;;;;;;;;;;;9.80;99.90;;;;;;5050380;28;20424;-72
2021/12/14 11:28:16;;;;;;;;;;;9.90;99.90;;;;;;5059747;28;20407;-69
2021/12/14 11:30:52;;;;;;;;;;;10.00;99.90;;;;;;5053594;28;19920;-79
2021/12/14 11:33:20;;;;;;;;;;;10.20;99.90;;;;;;5069681;28;20288;-71
2021/12/14 11:35:50;;;;;;;;;;;10.30;99.90;;;;;;5069665;28;19946;-73
2021/12/14 11:38:26;;;;;;;;;;;10.60;99.90;;;;;;5063485;28;19931;-80
2021/12/14 11:40:53;;;;;;;;;;;10.70;99.90;;;;;;5083248;28;19920;-73
2021/12/14 11:43:25;;;;;;;;;;;10.90;99.90;;;;;;5061726;28;20307;-70
2021/12/14 11:45:54;;;;;;;;;;;11.10;99.90;;;;;;5070954;28;19924;-80
2021/12/14 11:48:33;;;;;;;;;;;11.40;99.90;;;;;;5070816;28;19920;-77
2021/12/14 11:51:05;;;;;;;;;;;11.80;99.90;;;;;;5070890;28;19928;-69
2021/12/14 11:53:32;;;;;;;;;;;11.90;99.90;;;;;;5062208;28;19925;-81
2021/12/14 11:56:00;;;;;;;;;;;11.90;99.90;;;;;;5051192;28;19927;-77
2021/12/14 11:58:33;;;;;;;;;;;11.90;99.90;;;;;;5061676;28;19947;-68
2021/12/14 12:01:10;;;;;;;;;;;11.90;99.90;;;;;;5070851;28;20190;-82
2021/12/14 12:03:57;;;;;;;;;;;11.80;99.90;;;;;;5070356;28;19924;-78
2021/12/14 12:12:00;;;;;;;;;;;11.60;99.90;;;;;;5050421;28;20364;-81
2021/12/14 12:14:47;;;;;;;;;;;11.60;99.90;;;;;;5068891;28;19920;-80
2021/12/14 12:17:24;;;;;;;;;;;11.60;99.90;;;;;;5069090;28;19931;-79
2021/12/14 12:20:05;;;;;;;;;;;11.60;99.90;;;;;;5070157;28;19924;-76
2021/12/14 12:22:35;;;;;;;;;;;11.60;99.90;;;;;;5069065;28;20371;-75
2021/12/14 12:25:05;;;;;;;;;;;11.60;99.90;;;;;;5050959;28;19928;-81
2021/12/14 12:27:47;;;;;;;;;;;11.70;99.90;;;;;;5054028;28;19924;-76
2021/12/14 12:30:36;;;;;;;;;;;11.70;99.90;;;;;;5068973;28;19921;-77
2021/12/14 12:33:15;;;;;;;;;;;11.70;99.90;;;;;;5069511;28;19920;-74
2021/12/14 12:35:49;;;;;;;;;;;11.70;99.90;;;;;;5070029;28;19939;-76
2021/12/14 12:38:22;;;;;;;;;;;11.70;99.90;;;;;;5066533;28;20398;-72
2021/12/14 12:40:59;;;;;;;;;;;11.70;99.90;;;;;;5050297;28;20323;-76
2021/12/14 12:43:32;;;;;;;;;;;11.70;99.90;;;;;;5062326;28;19928;-79
2021/12/14 12:46:06;;;;;;;;;;;11.70;99.90;;;;;;5070461;28;19928;-78
2021/12/14 12:48:37;;;;;;;;;;;11.70;99.90;;;;;;5069820;28;19925;-67
2021/12/14 12:51:05;;;;;;;;;;;11.70;99.90;;;;;;5069889;28;19921;-62
2021/12/14 12:53:33;;;;;;;;;;;11.70;99.90;;;;;;5063557;28;19943;-60
2021/12/14 12:56:20;;;;;;;;;;;11.70;99.90;;;;;;5049642;28;20288;-61
2021/12/14 12:58:50;;;;;;;;;;;11.70;99.90;;;;;;5062986;28;20285;-61
2021/12/14 13:01:21;;;;;;;;;;;11.70;99.90;;;;;;5068268;28;19995;-63
2021/12/14 13:03:49;;;;;;;;;;;11.70;99.90;;;;;;5067170;28;19931;-61
2021/12/14 13:06:21;;;;;;;;;;;11.60;99.90;;;;;;5052049;28;20284;-60
2021/12/14 13:08:52;;;;;;;;;;;11.60;99.90;;;;;;5062393;28;19921;-60
2021/12/14 13:11:20;;;;;;;;;;;11.60;99.90;;;;;;5049283;28;19931;-64
2021/12/14 13:13:50;;;;;;;;;;;11.60;99.90;;;;;;5062897;28;19920;-61
2021/12/14 13:16:51;;;;;;;;;;;11.60;99.90;;;;;;5067746;28;20074;-60
2021/12/14 13:19:22;;;;;;;;;;;11.70;99.90;;;;;;5046039;28;19924;-61
2021/12/14 13:21:57;;;;;;;;;;;11.70;99.90;;;;;;5068470;28;19928;-60
2021/12/14 13:24:24;;;;;;;;;;;11.70;99.90;;;;;;5059087;28;19927;-60
2021/12/14 13:26:53;;;;;;;;;;;11.70;99.90;;;;;;5049130;28;19920;-64
2021/12/14 13:29:24;;;;;;;;;;;11.70;99.90;;;;;;5067079;28;19920;-61
2021/12/14 13:31:51;;;;;;;;;;;11.70;99.90;;;;;;5068873;28;20363;-61
2021/12/14 13:35:03;;;;;;;;;;;11.80;99.90;;;;;;5069056;28;20604;-64
2021/12/14 13:37:33;;;;;;;;;;;11.80;99.90;;;;;;5066867;28;19920;-63
2021/12/14 13:40:03;;;;;;;;;;;11.80;99.90;;;;;;5054861;28;20380;-73
2021/12/14 13:42:46;;;;;;;;;;;11.80;99.90;;;;;;5052282;28;19927;-62
2021/12/14 13:45:16;;;;;;;;;;;11.70;99.90;;;;;;5068687;28;19935;-60
2021/12/14 13:47:45;;;;;;;;;;;11.80;99.90;;;;;;5068870;28;19920;-60
2021/12/14 13:50:15;;;;;;;;;;;11.70;99.90;;;;;;5068587;28;19955;-60
2021/12/14 13:52:42;;;;;;;;;;;11.70;99.90;;;;;;5068327;28;19920;-63
2021/12/14 13:55:18;;;;;;;;;;;11.70;99.90;;;;;;5054237;28;19928;-66
2021/12/14 13:57:55;;;;;;;;;;;11.70;99.90;;;;;;5053610;28;20288;-61
2021/12/14 14:00:24;;;;;;;;;;;11.70;99.90;;;;;;5068950;28;20443;-60
2021/12/14 14:02:52;;;;;;;;;;;11.70;99.90;;;;;;5068206;28;19920;-62
2021/12/14 14:05:21;;;;;;;;;;;11.70;99.90;;;;;;5068799;28;20181;-62
2021/12/14 14:07:50;;;;;;;;;;;11.70;99.90;;;;;;5068996;28;19924;-61
2021/12/14 14:10:18;;;;;;;;;;;11.60;99.90;;;;;;5055509;28;19920;-63
2021/12/14 14:12:51;;;;;;;;;;;11.60;99.90;;;;;;5053663;28;19943;-64
2021/12/14 14:15:21;;;;;;;;;;;11.60;99.90;;;;;;5068448;28;19920;-62
2021/12/14 14:17:50;;;;;;;;;;;11.60;99.90;;;;;;5068391;28;20299;-65
2021/12/14 14:20:23;;;;;;;;;;;11.60;99.90;;;;;;5068227;28;19920;-61
2021/12/14 14:22:50;;;;;;;;;;;11.60;99.90;;;;;;5068221;28;20291;-61
2021/12/14 14:25:20;;;;;;;;;;;11.60;99.90;;;;;;5055782;28;19920;-64
2021/12/14 14:27:52;;;;;;;;;;;11.60;99.90;;;;;;5053706;28;19927;-61
2021/12/14 14:30:20;;;;;;;;;;;11.60;99.90;;;;;;5072495;28;19920;-60
2021/12/14 14:32:58;;;;;;;;;;;11.60;99.90;;;;;;5072102;28;19925;-60
2021/12/14 14:35:48;;;;;;;;;;;11.50;99.90;;;;;;5072424;28;19920;-60
2021/12/14 14:38:34;;;;;;;;;;;11.50;99.90;;;;;;5071951;28;19920;-65
2021/12/14 14:41:22;;;;;;;;;;;11.50;99.90;;;;;;5054391;28;20386;-61
2021/12/14 14:44:04;;;;;;;;;;;11.50;99.90;;;;;;5064474;28;19929;-62
2021/12/14 14:46:57;;;;;;;;;;;11.50;99.90;;;;;;5071956;28;19920;-60
2021/12/14 14:49:36;;;;;;;;;;;11.50;99.90;;;;;;5071661;28;19921;-61
2021/12/14 14:52:07;;;;;;;;;;;11.50;99.90;;;;;;5071836;28;20398;-63
2021/12/14 14:54:41;;;;;;;;;;;11.50;99.90;;;;;;5066906;28;19920;-60
2021/12/14 14:57:09;;;;;;;;;;;11.50;99.90;;;;;;5050852;28;19924;-61
2021/12/14 14:59:57;;;;;;;;;;;11.50;99.90;;;;;;5070288;28;20295;-60
2021/12/14 15:02:34;;;;;;;;;;;11.40;99.90;;;;;;5064355;28;19928;-60
2021/12/14 15:05:01;;;;;;;;;;;11.40;99.90;;;;;;5072040;28;19925;-60
2021/12/14 15:07:47;;;;;;;;;;;11.50;99.90;;;;;;5071667;28;19928;-67
2021/12/14 15:10:16;;;;;;;;;;;11.50;99.90;;;;;;5061990;28;19921;-73
2021/12/14 15:12:43;;;;;;;;;;;11.50;99.90;;;;;;5055891;28;19920;-79
2021/12/14 15:15:14;;;;;;;;;;;11.50;99.90;;;;;;5071688;28;19927;-76
2021/12/14 15:17:46;;;;;;;;;;;11.50;99.90;;;;;;5071235;28;19927;-76
2021/12/14 15:20:28;;;;;;;;;;;11.50;99.90;;;;;;5071365;28;19920;-76
2021/12/14 15:23:03;;;;;;;;;;;11.50;99.90;;;;;;5071051;28;20376;-79
2021/12/14 15:25:31;;;;;;;;;;;11.50;99.90;;;;;;5060200;28;19928;-78
2021/12/14 15:28:00;;;;;;;;;;;11.50;99.90;;;;;;5058041;28;20350;-78
2021/12/14 15:30:30;;;;;;;;;;;11.40;99.90;;;;;;5072375;28;19928;-78
2021/12/14 15:33:00;;;;;;;;;;;11.50;99.90;;;;;;5071387;28;19932;-68
2021/12/14 15:35:27;;;;;;;;;;;11.40;99.90;;;;;;5070008;28;19920;-67
2021/12/14 15:38:02;;;;;;;;;;;11.40;99.90;;;;;;5071311;28;19932;-66
2021/12/14 15:40:30;;;;;;;;;;;11.40;99.90;;;;;;5060373;28;19921;-61
2021/12/14 15:43:00;;;;;;;;;;;11.30;99.90;;;;;;5057156;28;19924;-61